createdAt,value
2023-05-13T00:00:28.427Z,14.90
2023-05-13T00:02:55.302Z,15.00
2023-05-13T00:05:24.535Z,15.00
2023-05-13T00:07:51.399Z,15.00
2023-05-13T00:10:21.008Z,15.00
2023-05-13T00:12:52.350Z,15.00
2023-05-13T00:15:24.092Z,15.00
2023-05-13T00:17:53.147Z,15.00
2023-05-13T00:20:24.365Z,15.00
2023-05-13T00:22:51.336Z,15.00
2023-05-13T00:25:25.156Z,15.10
2023-05-13T00:27:56.796Z,15.10
2023-05-13T00:30:26.143Z,15.00
2023-05-13T00:32:58.090Z,15.10
2023-05-13T00:35:25.083Z,15.10
2023-05-13T00:37:54.294Z,15.10
2023-05-13T00:40:24.189Z,15.10
2023-05-13T00:42:55.066Z,15.10
2023-05-13T00:45:21.895Z,15.00
2023-05-13T00:47:49.593Z,15.00
2023-05-13T00:50:16.771Z,15.10
2023-05-13T00:52:50.982Z,15.10
2023-05-13T00:55:22.646Z,15.10
2023-05-13T00:57:51.646Z,15.10
2023-05-13T01:00:19.339Z,15.00
2023-05-13T01:03:18.544Z,15.00
2023-05-13T01:06:33.312Z,15.00
2023-05-13T01:09:21.548Z,15.00
2023-05-13T01:11:52.061Z,15.10
2023-05-13T01:14:54.185Z,15.10
2023-05-13T01:17:35.857Z,15.10
2023-05-13T01:20:06.744Z,15.10
2023-05-13T01:22:36.297Z,15.10
2023-05-13T01:25:05.290Z,15.10
2023-05-13T01:27:32.801Z,15.10
2023-05-13T01:30:06.872Z,15.10
2023-05-13T01:32:35.421Z,15.10
2023-05-13T01:35:04.692Z,15.10
2023-05-13T01:37:40.401Z,15.10
2023-05-13T01:40:24.115Z,15.10
2023-05-13T01:43:00.525Z,15.10
2023-05-13T01:45:33.627Z,15.20
2023-05-13T01:48:06.587Z,15.10
2023-05-13T01:50:42.031Z,15.10
2023-05-13T01:53:09.414Z,15.10
2023-05-13T01:55:38.433Z,15.10
2023-05-13T01:58:07.905Z,15.20
2023-05-13T02:00:37.125Z,15.10
2023-05-13T02:03:04.176Z,15.10
2023-05-13T02:05:33.447Z,15.10
2023-05-13T02:08:07.587Z,15.10
2023-05-13T02:10:36.897Z,15.10
2023-05-13T02:13:06.333Z,15.10
2023-05-13T02:15:35.719Z,15.10
2023-05-13T02:18:02.629Z,15.10
2023-05-13T02:20:30.622Z,15.00
2023-05-13T02:23:01.739Z,15.00
2023-05-13T02:25:33.537Z,15.00
2023-05-13T02:28:00.420Z,15.00
2023-05-13T02:30:29.561Z,15.00
2023-05-13T02:33:03.063Z,15.00
2023-05-13T02:35:32.207Z,15.00
2023-05-13T02:38:05.354Z,15.00
2023-05-13T02:40:34.946Z,14.90
2023-05-13T02:43:04.522Z,14.90
2023-05-13T02:45:46.220Z,14.90
2023-05-13T02:48:18.096Z,14.90
2023-05-13T02:50:47.400Z,14.90
2023-05-13T02:53:14.262Z,14.90
2023-05-13T02:55:46.495Z,14.80
2023-05-13T02:58:13.478Z,14.80
2023-05-13T03:00:43.066Z,14.80
2023-05-13T03:03:10.126Z,14.80
2023-05-13T03:05:39.606Z,14.80
2023-05-13T03:08:06.578Z,14.70
2023-05-13T03:10:35.977Z,14.70
2023-05-13T03:13:12.675Z,14.60
2023-05-13T03:15:40.534Z,14.60
2023-05-13T03:18:11.794Z,14.50
2023-05-13T03:20:40.955Z,14.50
2023-05-13T03:23:14.613Z,14.50
2023-05-13T03:25:45.131Z,14.40
2023-05-13T03:28:12.077Z,14.40
2023-05-13T03:30:43.495Z,14.40
2023-05-13T03:33:19.681Z,14.40
2023-05-13T03:35:49.625Z,14.30
2023-05-13T03:38:18.977Z,14.30
2023-05-13T03:40:49.753Z,14.30
2023-05-13T03:43:20.394Z,14.30
2023-05-13T03:45:53.517Z,14.20
2023-05-13T03:48:22.228Z,14.20
2023-05-13T03:50:49.250Z,14.20
2023-05-13T03:53:20.279Z,14.20
2023-05-13T03:55:49.932Z,14.20
2023-05-13T03:58:19.207Z,14.20
2023-05-13T04:00:48.906Z,14.10
2023-05-13T04:03:20.124Z,14.10
2023-05-13T04:05:54.732Z,14.10
2023-05-13T04:08:21.694Z,14.10
2023-05-13T04:10:53.647Z,14.10
2023-05-13T04:13:23.065Z,14.00
2023-05-13T04:15:49.874Z,14.00
2023-05-13T04:18:21.760Z,14.00
2023-05-13T04:20:48.683Z,14.00
2023-05-13T04:23:18.041Z,14.00
2023-05-13T04:25:53.588Z,14.00
2023-05-13T04:28:24.985Z,14.00
2023-05-13T04:30:53.114Z,14.00
2023-05-13T04:33:20.417Z,14.00
2023-05-13T04:35:51.407Z,14.00
2023-05-13T04:38:18.285Z,14.00
2023-05-13T04:40:52.116Z,14.00
2023-05-13T04:43:27.958Z,14.00
2023-05-13T04:45:57.765Z,14.10
2023-05-13T04:48:28.018Z,14.10
2023-05-13T04:51:00.634Z,14.10
2023-05-13T04:53:32.053Z,14.10
2023-05-13T04:56:01.899Z,14.20
2023-05-13T04:58:34.753Z,14.20
2023-05-13T05:01:02.260Z,14.20
2023-05-13T05:03:36.594Z,14.20
2023-05-13T05:06:05.843Z,14.20
2023-05-13T05:08:37.163Z,14.30
2023-05-13T05:11:04.019Z,14.30
2023-05-13T05:13:32.957Z,14.30
2023-05-13T05:15:59.857Z,14.30
2023-05-13T05:18:31.447Z,14.30
2023-05-13T05:21:02.504Z,14.40
2023-05-13T05:23:32.346Z,14.40
2023-05-13T05:26:11.237Z,14.50
2023-05-13T05:28:42.301Z,14.50
2023-05-13T05:31:09.698Z,14.60
2023-05-13T05:33:39.886Z,14.60
2023-05-13T05:36:09.822Z,14.70
2023-05-13T05:38:42.066Z,14.80
2023-05-13T05:41:13.808Z,14.80
2023-05-13T05:43:40.768Z,14.80
2023-05-13T05:46:08.882Z,14.90
2023-05-13T05:48:41.141Z,14.90
2023-05-13T05:51:08.689Z,14.90
2023-05-13T05:53:42.570Z,15.00
2023-05-13T05:56:14.247Z,15.10
2023-05-13T05:58:42.157Z,15.20
2023-05-13T06:01:09.170Z,15.10
2023-05-13T06:03:41.097Z,15.20
2023-05-13T06:06:08.096Z,15.20
2023-05-13T06:08:37.056Z,15.30
2023-05-13T06:11:06.596Z,15.40
2023-05-13T06:13:38.544Z,15.50
2023-05-13T06:16:08.602Z,15.50
2023-05-13T06:18:40.847Z,15.60
2023-05-13T06:21:07.688Z,15.70
2023-05-13T06:23:37.741Z,15.70
2023-05-13T06:26:06.633Z,15.80
2023-05-13T06:28:35.195Z,15.90
2023-05-13T06:31:04.592Z,16.00
2023-05-13T06:33:31.593Z,16.10
2023-05-13T06:36:00.674Z,16.10
2023-05-13T06:38:29.645Z,16.20
2023-05-13T06:41:06.200Z,16.20
2023-05-13T06:43:45.437Z,16.20
2023-05-13T06:46:20.286Z,16.30
2023-05-13T06:48:52.203Z,16.30
2023-05-13T06:51:26.187Z,16.30
2023-05-13T06:53:56.063Z,16.30
2023-05-13T06:56:23.094Z,16.40
2023-05-13T06:58:55.092Z,16.40
2023-05-13T07:01:22.074Z,16.40
2023-05-13T07:03:55.625Z,16.50
2023-05-13T07:06:27.614Z,16.50
2023-05-13T07:08:54.622Z,16.50
2023-05-13T07:11:24.333Z,16.60
2023-05-13T07:13:53.718Z,16.70
2023-05-13T07:16:20.952Z,16.80
2023-05-13T07:18:51.020Z,16.80
2023-05-13T07:21:22.638Z,16.80
2023-05-13T07:23:52.124Z,16.90
2023-05-13T07:26:21.581Z,16.90
2023-05-13T07:28:48.429Z,17.00
2023-05-13T07:31:15.420Z,17.10
2023-05-13T07:33:46.965Z,17.10
2023-05-13T07:36:19.098Z,17.20
2023-05-13T07:38:48.081Z,17.20
2023-05-13T07:41:20.030Z,17.20
2023-05-13T07:43:49.227Z,17.30
2023-05-13T07:46:16.048Z,17.30
2023-05-13T07:48:45.018Z,17.40
2023-05-13T07:51:16.132Z,17.40
2023-05-13T07:53:47.884Z,17.40
2023-05-13T07:56:21.932Z,17.40
2023-05-13T07:58:51.084Z,17.50
2023-05-13T08:01:22.561Z,17.50
2023-05-13T08:03:51.714Z,17.50
2023-05-13T08:06:23.459Z,17.50
2023-05-13T08:08:52.432Z,17.60
2023-05-13T08:11:21.761Z,17.70
2023-05-13T08:13:48.661Z,17.70
2023-05-13T08:16:20.215Z,17.70
2023-05-13T08:18:49.909Z,17.90
2023-05-13T08:21:18.818Z,17.90
2023-05-13T08:23:49.991Z,18.00
2023-05-13T08:26:16.881Z,18.10
2023-05-13T08:28:48.523Z,18.20
2023-05-13T08:31:16.003Z,18.30
2023-05-13T08:33:44.744Z,18.40
2023-05-13T08:36:12.044Z,18.60
2023-05-13T08:38:43.849Z,18.70
2023-05-13T08:41:14.923Z,18.80
2023-05-13T08:43:49.354Z,19.00
2023-05-13T08:46:18.633Z,19.10
2023-05-13T08:48:49.000Z,19.20
2023-05-13T08:51:20.448Z,19.30
2023-05-13T08:53:53.368Z,19.40
2023-05-13T08:56:25.532Z,19.50
2023-05-13T08:58:52.389Z,19.50
2023-05-13T09:01:19.490Z,19.60
2023-05-13T09:03:59.817Z,19.60
2023-05-13T09:06:29.520Z,19.70
2023-05-13T09:08:56.624Z,19.70
2023-05-13T09:11:28.262Z,19.70
2023-05-13T09:14:01.704Z,19.70
2023-05-13T09:16:32.636Z,19.80
2023-05-13T09:19:03.048Z,19.80
2023-05-13T09:21:39.458Z,19.80
2023-05-13T09:24:11.595Z,19.90
2023-05-13T09:26:41.835Z,19.90
2023-05-13T09:29:30.355Z,19.90
2023-05-13T09:32:01.550Z,20.00
2023-05-13T09:34:30.779Z,20.10
2023-05-13T09:37:02.373Z,20.20
2023-05-13T09:39:33.760Z,20.20
2023-05-13T09:42:04.535Z,20.30
2023-05-13T09:44:38.276Z,20.40
2023-05-13T09:47:11.206Z,20.50
2023-05-13T09:49:38.134Z,20.50
2023-05-13T09:52:09.974Z,20.60
2023-05-13T09:54:41.730Z,20.70
2023-05-13T09:57:15.860Z,20.80
2023-05-13T09:59:42.721Z,20.90
2023-05-13T10:02:10.677Z,21.00
2023-05-13T10:04:43.382Z,21.00
2023-05-13T10:07:12.512Z,21.10
2023-05-13T10:09:46.702Z,21.20
2023-05-13T10:12:16.104Z,21.30
2023-05-13T10:14:44.166Z,21.40
2023-05-13T10:17:12.065Z,21.40
2023-05-13T10:19:41.673Z,21.50
2023-05-13T10:22:09.100Z,21.60
2023-05-13T10:24:41.598Z,21.70
2023-05-13T10:27:14.132Z,21.80
2023-05-13T10:29:47.919Z,21.80
2023-05-13T10:32:15.157Z,22.00
2023-05-13T10:34:46.256Z,22.10
2023-05-13T10:37:57.937Z,22.10
2023-05-13T10:40:49.731Z,22.20
2023-05-13T10:43:26.960Z,22.40
2023-05-13T10:46:14.958Z,22.50
2023-05-13T10:48:58.143Z,22.70
2023-05-13T10:51:26.161Z,22.70
2023-05-13T10:54:02.230Z,22.80
2023-05-13T10:56:29.322Z,22.90
2023-05-13T10:59:05.291Z,23.00
2023-05-13T11:01:43.617Z,23.00
2023-05-13T11:04:20.563Z,23.10
2023-05-13T11:06:49.967Z,23.20
2023-05-13T11:09:22.855Z,23.30
2023-05-13T11:11:54.843Z,23.30
2023-05-13T11:14:24.317Z,23.40
2023-05-13T11:17:07.682Z,23.40
2023-05-13T11:19:55.458Z,23.40
2023-05-13T11:22:29.752Z,23.30
2023-05-13T11:25:07.464Z,23.30
2023-05-13T11:27:43.981Z,23.20
2023-05-13T11:30:29.402Z,23.20
2023-05-13T11:33:02.199Z,23.10
2023-05-13T11:35:34.237Z,23.10
2023-05-13T11:38:06.393Z,23.10
2023-05-13T11:40:38.333Z,23.10
2023-05-13T11:43:06.242Z,23.00
2023-05-13T11:45:39.959Z,23.00
2023-05-13T11:48:26.276Z,23.00
2023-05-13T11:51:01.340Z,23.00
2023-05-13T11:53:30.373Z,23.10
2023-05-13T11:56:12.792Z,23.10
2023-05-13T11:58:44.606Z,23.10
2023-05-13T12:01:14.984Z,23.20
2023-05-13T12:03:41.845Z,23.10
2023-05-13T12:06:16.214Z,23.20
2023-05-13T12:08:46.838Z,23.20
2023-05-13T12:11:16.768Z,23.20
2023-05-13T12:13:45.797Z,23.10
2023-05-13T12:16:19.575Z,23.10
2023-05-13T12:18:59.709Z,23.10
2023-05-13T12:21:34.778Z,23.10
2023-05-13T12:24:23.333Z,23.00
2023-05-13T12:26:52.533Z,23.00
2023-05-13T12:29:21.519Z,23.00
2023-05-13T12:32:05.371Z,23.20
2023-05-13T12:34:36.460Z,23.30
2023-05-13T12:37:15.358Z,23.70
2023-05-13T12:39:43.390Z,23.90
2023-05-13T12:42:16.353Z,24.30
2023-05-13T12:44:45.759Z,24.50
2023-05-13T12:47:20.010Z,24.50
2023-05-13T12:49:59.420Z,24.70
2023-05-13T12:52:28.749Z,24.50
2023-05-13T12:54:58.046Z,24.50
2023-05-13T12:57:25.437Z,24.40
2023-05-13T12:59:56.954Z,24.30
2023-05-13T13:02:30.768Z,24.10
2023-05-13T13:05:00.286Z,24.00
2023-05-13T13:07:29.308Z,23.90
2023-05-13T13:09:56.980Z,23.80
2023-05-13T13:12:26.109Z,23.70
2023-05-13T13:14:55.167Z,23.60
2023-05-13T13:17:27.062Z,23.50
2023-05-13T13:19:59.088Z,23.50
2023-05-13T13:22:27.449Z,23.40
2023-05-13T13:24:56.572Z,23.40
2023-05-13T13:27:25.524Z,23.30
2023-05-13T13:29:52.312Z,23.40
2023-05-13T13:32:19.402Z,23.40
2023-05-13T13:34:46.273Z,23.40
2023-05-13T13:37:13.171Z,23.50
2023-05-13T13:39:40.012Z,23.70
2023-05-13T13:42:09.024Z,23.70
2023-05-13T13:44:39.431Z,23.80
2023-05-13T13:47:09.841Z,23.90
2023-05-13T13:49:39.434Z,24.00
2023-05-13T13:52:08.602Z,24.10
2023-05-13T13:54:38.080Z,24.20
2023-05-13T13:57:10.006Z,24.40
2023-05-13T13:59:36.944Z,24.50
2023-05-13T14:02:11.596Z,24.60
2023-05-13T14:04:43.046Z,24.70
2023-05-13T14:07:09.912Z,24.80
2023-05-13T14:09:36.716Z,24.80
2023-05-13T14:12:06.805Z,24.90
2023-05-13T14:14:35.740Z,24.90
2023-05-13T14:17:02.590Z,24.90
2023-05-13T14:19:33.972Z,24.90
2023-05-13T14:22:05.341Z,24.70
2023-05-13T14:24:34.465Z,24.60
2023-05-13T14:27:03.811Z,24.50
2023-05-13T14:29:33.358Z,24.40
2023-05-13T14:32:03.714Z,24.30
2023-05-13T14:34:36.983Z,24.30
2023-05-13T14:37:04.144Z,24.20
2023-05-13T14:39:33.358Z,24.10
2023-05-13T14:42:05.606Z,24.10
2023-05-13T14:44:34.819Z,24.20
2023-05-13T14:47:04.007Z,24.10
2023-05-13T14:49:38.074Z,24.20
2023-05-13T14:52:05.444Z,24.20
2023-05-13T14:54:35.622Z,24.20
2023-05-13T14:57:12.473Z,24.20
2023-05-13T14:59:39.344Z,24.10
2023-05-13T15:02:06.246Z,24.20
2023-05-13T15:04:33.113Z,24.40
2023-05-13T15:07:02.136Z,24.70
2023-05-13T15:09:29.001Z,25.00
2023-05-13T15:11:55.940Z,25.40
2023-05-13T15:14:28.766Z,25.90
2023-05-13T15:17:00.338Z,26.20
2023-05-13T15:19:27.286Z,26.70
2023-05-13T15:21:54.201Z,27.00
2023-05-13T15:24:25.439Z,27.40
2023-05-13T15:26:57.137Z,27.70
2023-05-13T15:29:31.938Z,28.00
2023-05-13T15:32:01.384Z,28.40
2023-05-13T15:34:28.331Z,28.80
2023-05-13T15:36:59.825Z,29.10
2023-05-13T15:39:26.661Z,29.30
2023-05-13T15:41:56.148Z,29.60
2023-05-13T15:44:25.714Z,29.80
2023-05-13T15:46:52.623Z,29.90
2023-05-13T15:49:22.121Z,29.90
2023-05-13T15:51:51.078Z,30.00
2023-05-13T15:54:22.282Z,29.80
2023-05-13T15:56:52.747Z,29.50
2023-05-13T15:59:19.616Z,29.20
2023-05-13T16:01:49.066Z,28.80
2023-05-13T16:04:20.316Z,28.60
2023-05-13T16:06:47.233Z,28.40
2023-05-13T16:09:16.185Z,28.20
2023-05-13T16:11:50.452Z,28.20
2023-05-13T16:14:21.883Z,28.00
2023-05-13T16:16:51.102Z,28.00
2023-05-13T16:19:17.916Z,28.00
2023-05-13T16:21:47.056Z,28.00
2023-05-13T16:24:16.067Z,28.00
2023-05-13T16:26:45.226Z,28.00
2023-05-13T16:29:17.335Z,28.00
2023-05-13T16:31:46.600Z,27.80
2023-05-13T16:34:18.020Z,27.60
2023-05-13T16:36:46.917Z,27.50
2023-05-13T16:39:13.796Z,27.30
2023-05-13T16:41:42.709Z,27.10
2023-05-13T16:44:19.132Z,26.90
2023-05-13T16:46:46.056Z,26.70
2023-05-13T16:49:15.218Z,26.60
2023-05-13T16:51:42.062Z,26.50
2023-05-13T16:54:10.959Z,26.40
2023-05-13T16:56:37.833Z,26.40
2023-05-13T16:59:08.672Z,26.30
2023-05-13T17:01:42.599Z,26.20
2023-05-13T17:04:11.614Z,26.00
2023-05-13T17:06:43.378Z,25.80
2023-05-13T17:09:10.935Z,25.70
2023-05-13T17:11:38.822Z,25.50
2023-05-13T17:14:06.565Z,25.30
2023-05-13T17:16:38.496Z,25.20
2023-05-13T17:19:05.685Z,25.00
2023-05-13T17:21:35.550Z,24.80
2023-05-13T17:24:02.448Z,24.70
2023-05-13T17:26:30.619Z,24.50
2023-05-13T17:29:06.995Z,24.40
2023-05-13T17:31:36.308Z,24.20
2023-05-13T17:34:03.233Z,24.00
2023-05-13T17:36:32.788Z,23.90
2023-05-13T17:39:02.308Z,23.80
2023-05-13T17:41:29.144Z,23.70
2023-05-13T17:44:00.621Z,23.60
2023-05-13T17:46:34.585Z,23.40
2023-05-13T17:49:03.553Z,23.40
2023-05-13T17:51:33.066Z,23.20
2023-05-13T17:54:02.236Z,23.10
2023-05-13T17:56:33.848Z,23.00
2023-05-13T17:59:03.204Z,22.90
2023-05-13T18:01:30.110Z,22.90
2023-05-13T18:03:56.946Z,22.80
2023-05-13T18:06:23.803Z,22.80
2023-05-13T18:08:52.941Z,22.60
2023-05-13T18:11:22.041Z,22.50
2023-05-13T18:13:48.928Z,22.50
2023-05-13T18:16:18.563Z,22.40
2023-05-13T18:18:48.406Z,22.30
2023-05-13T18:21:17.470Z,22.30
2023-05-13T18:23:45.908Z,22.20
2023-05-13T18:26:15.251Z,22.10
2023-05-13T18:28:45.002Z,22.00
2023-05-13T18:31:11.974Z,21.80
2023-05-13T18:33:41.889Z,21.80
2023-05-13T18:36:11.336Z,21.70
2023-05-13T18:38:39.430Z,21.60
2023-05-13T18:41:16.266Z,21.50
2023-05-13T18:43:45.937Z,21.40
2023-05-13T18:46:15.113Z,21.20
2023-05-13T18:48:42.143Z,21.10
2023-05-13T18:51:12.124Z,21.00
2023-05-13T18:53:39.354Z,21.00
2023-05-13T18:56:06.331Z,20.80
2023-05-13T18:58:35.519Z,20.80
2023-05-13T19:01:04.615Z,20.70
2023-05-13T19:03:31.945Z,20.60
2023-05-13T19:06:01.070Z,20.60
2023-05-13T19:08:27.872Z,20.50
2023-05-13T19:10:55.013Z,20.40
2023-05-13T19:13:33.318Z,20.30
2023-05-13T19:16:12.832Z,20.30
2023-05-13T19:18:44.425Z,20.20
2023-05-13T19:21:13.581Z,20.10
2023-05-13T19:23:42.955Z,20.00
2023-05-13T19:26:09.805Z,20.00
2023-05-13T19:28:43.654Z,19.90
2023-05-13T19:31:10.863Z,19.90
2023-05-13T19:33:40.321Z,19.80
2023-05-13T19:36:14.617Z,19.70
2023-05-13T19:38:41.973Z,19.70
2023-05-13T19:41:08.929Z,19.60
2023-05-13T19:43:36.122Z,19.50
2023-05-13T19:46:03.064Z,19.50
2023-05-13T19:48:32.219Z,19.40
2023-05-13T19:50:59.094Z,19.30
2023-05-13T19:53:28.365Z,19.30
2023-05-13T19:55:57.614Z,19.20
2023-05-13T19:58:24.643Z,19.20
2023-05-13T20:00:51.547Z,19.00
2023-05-13T20:03:27.774Z,19.00
2023-05-13T20:05:54.855Z,19.00
2023-05-13T20:08:23.889Z,18.90
2023-05-13T20:10:52.868Z,18.80
2023-05-13T20:13:19.721Z,18.80
2023-05-13T20:15:46.698Z,18.70
2023-05-13T20:18:13.751Z,18.70
2023-05-13T20:20:43.177Z,18.60
2023-05-13T20:23:10.141Z,18.60
2023-05-13T20:25:39.441Z,18.50
2023-05-13T20:28:06.708Z,18.40
2023-05-13T20:30:35.839Z,18.40
2023-05-13T20:33:02.804Z,18.40
2023-05-13T20:35:32.776Z,18.40
2023-05-13T20:38:01.041Z,18.30
2023-05-13T20:40:30.606Z,18.20
2023-05-13T20:43:01.360Z,18.20
2023-05-13T20:45:28.729Z,18.10
2023-05-13T20:47:59.201Z,18.10
2023-05-13T20:50:30.303Z,18.00
2023-05-13T20:52:59.612Z,18.00
2023-05-13T20:55:26.697Z,17.90
2023-05-13T20:57:55.814Z,17.90
2023-05-13T21:00:25.455Z,17.90
2023-05-13T21:02:53.848Z,17.80
2023-05-13T21:05:25.499Z,17.80
2023-05-13T21:07:52.516Z,17.70
2023-05-13T21:10:19.392Z,17.70
2023-05-13T21:12:54.185Z,17.70
2023-05-13T21:15:23.290Z,17.70
2023-05-13T21:17:50.195Z,17.70
2023-05-13T21:20:19.685Z,17.60
2023-05-13T21:22:53.995Z,17.60
2023-05-13T21:25:23.020Z,17.60
2023-05-13T21:27:54.872Z,17.60
2023-05-13T21:30:26.560Z,17.50
2023-05-13T21:32:55.801Z,17.60
2023-05-13T21:35:24.968Z,17.50
2023-05-13T21:38:01.411Z,17.50
2023-05-13T21:40:42.676Z,17.50
2023-05-13T21:43:12.490Z,17.40
2023-05-13T21:45:41.840Z,17.40
2023-05-13T21:48:11.185Z,17.30
2023-05-13T21:50:38.695Z,17.30
2023-05-13T21:53:05.630Z,17.30
2023-05-13T21:55:37.086Z,17.20
2023-05-13T21:58:06.940Z,17.20
2023-05-13T22:00:35.944Z,17.10
2023-05-13T22:03:06.056Z,17.10
2023-05-13T22:05:42.114Z,17.00
2023-05-13T22:08:11.207Z,17.00
2023-05-13T22:10:41.550Z,17.00
2023-05-13T22:13:13.401Z,16.90
2023-05-13T22:15:40.497Z,16.90
2023-05-13T22:18:07.461Z,16.90
2023-05-13T22:20:36.757Z,16.90
2023-05-13T22:23:03.523Z,16.80
2023-05-13T22:25:30.431Z,16.80
2023-05-13T22:27:59.673Z,16.80
2023-05-13T22:30:26.612Z,16.80
2023-05-13T22:32:54.049Z,16.80
2023-05-13T22:35:21.168Z,16.70
2023-05-13T22:37:52.714Z,16.70
2023-05-13T22:40:22.351Z,16.70
2023-05-13T22:42:51.762Z,16.70
2023-05-13T22:45:18.586Z,16.60
2023-05-13T22:47:49.202Z,16.60
2023-05-13T22:50:18.695Z,16.60
2023-05-13T22:52:45.628Z,16.60
2023-05-13T22:55:14.611Z,16.60
2023-05-13T22:57:43.658Z,16.60
2023-05-13T23:00:11.724Z,16.50
2023-05-13T23:02:43.164Z,16.50
2023-05-13T23:05:12.723Z,16.50
2023-05-13T23:07:39.671Z,16.40
2023-05-13T23:10:09.340Z,16.40
2023-05-13T23:12:40.544Z,16.30
2023-05-13T23:15:08.353Z,16.30
2023-05-13T23:17:35.421Z,16.30
2023-05-13T23:20:10.014Z,16.20
2023-05-13T23:22:41.909Z,16.20
2023-05-13T23:25:15.797Z,16.20
2023-05-13T23:27:42.624Z,16.10
2023-05-13T23:30:12.788Z,16.10
2023-05-13T23:32:42.012Z,16.00
2023-05-13T23:35:09.576Z,16.00
2023-05-13T23:37:38.643Z,15.90
2023-05-13T23:40:06.728Z,15.90
2023-05-13T23:42:42.985Z,15.90
2023-05-13T23:45:17.618Z,15.90
2023-05-13T23:47:44.477Z,15.80
2023-05-13T23:50:11.817Z,15.80
2023-05-13T23:52:43.719Z,15.70
2023-05-13T23:55:15.848Z,15.70
2023-05-13T23:57:42.740Z,15.70
